Time;durP1;ratioP1;P1;durP2;ratioP2;P2;SDS_P1;SDS_P2;PMS_P1;PMS_P2;Temp;Humidity;BMP_temperature;BMP_pressure;BME280_temperature;BME280_humidity;BME280_pressure;Samples;Min_cycle;Max_cycle;Signal;HPM_P1;HPM_P2
2023/07/27 00:00:41;;;;;;;9.15;7.25;;;;;;;20.24;58.06;94148.75;5091740;28;20509;-76
2023/07/27 00:03:06;;;;;;;10.32;7.32;;;;;;;20.37;57.84;94143.50;5075133;28;20470;-78
2023/07/27 00:05:32;;;;;;;7.78;6.55;;;;;;;20.23;58.06;94142.69;5091844;28;20020;-77
2023/07/27 00:07:57;;;;;;;8.07;6.72;;;;;;;20.23;58.10;94137.41;5092959;28;20445;-77
2023/07/27 00:10:24;;;;;;;7.18;6.43;;;;;;;20.36;57.80;94157.69;5091558;28;20401;-77
2023/07/27 00:12:50;;;;;;;7.93;6.63;;;;;;;20.35;57.93;94153.44;5092000;28;20043;-77
2023/07/27 00:15:15;;;;;;;7.18;6.45;;;;;;;20.26;58.22;94168.66;5091686;28;20558;-77
2023/07/27 00:17:41;;;;;;;7.45;6.00;;;;;;;20.31;58.39;94181.22;5074744;28;20029;-77
2023/07/27 00:20:06;;;;;;;7.78;6.65;;;;;;;20.21;59.20;94191.34;5091242;28;20020;-78
2023/07/27 00:22:32;;;;;;;7.07;6.38;;;;;;;20.24;59.49;94183.03;5091633;28;20486;-78
2023/07/27 00:24:57;;;;;;;7.07;6.38;;;;;;;20.03;59.64;94190.13;5091291;28;20062;-77
2023/07/27 00:27:23;;;;;;;7.40;6.70;;;;;;;20.06;59.32;94173.91;5090884;28;20093;-77
2023/07/27 00:29:48;;;;;;;7.00;6.30;;;;;;;20.06;58.98;94173.09;5090759;28;20024;-77
2023/07/27 00:32:13;;;;;;;6.40;5.70;;;;;;;19.82;58.29;94162.09;5091339;28;20434;-77
2023/07/27 00:34:39;;;;;;;5.85;5.25;;;;;;;19.71;57.88;94154.75;5091094;28;20387;-77
2023/07/27 00:37:04;;;;;;;5.57;4.95;;;;;;;19.57;57.92;94159.16;5091231;28;20036;-76
2023/07/27 00:39:30;;;;;;;6.13;5.00;;;;;;;19.69;57.34;94159.41;5091898;28;20030;-77
2023/07/27 00:41:55;;;;;;;6.78;5.10;;;;;;;19.63;57.73;94168.88;5091140;28;20126;-78
2023/07/27 00:44:21;;;;;;;5.40;4.75;;;;;;;19.61;57.75;94176.19;5073888;28;20020;-77
2023/07/27 00:46:46;;;;;;;5.68;4.97;;;;;;;19.49;58.18;94167.22;5090394;28;20024;-76
2023/07/27 00:49:11;;;;;;;4.80;4.30;;;;;;;19.44;58.22;94174.91;5091025;28;20483;-77
2023/07/27 00:51:39;;;;;;;5.80;4.90;;;;;;;19.35;58.27;94170.81;5054072;28;20066;-77
2023/07/27 00:54:05;;;;;;;7.15;4.20;;;;;;;19.35;57.60;94166.38;5087578;28;20044;-77
2023/07/27 00:56:31;;;;;;;5.10;4.35;;;;;;;19.28;58.13;94168.16;5087526;28;20476;-77
2023/07/27 00:59:00;;;;;;;4.65;3.92;;;;;;;19.20;57.99;94155.97;5073276;28;20032;-77
2023/07/27 01:01:25;;;;;;;5.10;4.00;;;;;;;19.18;58.03;94158.00;5057593;28;20035;-77
2023/07/27 01:03:52;;;;;;;4.57;3.60;;;;;;;19.09;58.43;94156.53;5054020;28;20418;-77
2023/07/27 01:06:17;;;;;;;4.95;3.60;;;;;;;19.11;58.28;94154.53;5086887;28;20061;-77
2023/07/27 01:08:43;;;;;;;7.13;3.90;;;;;;;18.95;58.34;94131.97;5090631;28;20052;-77
2023/07/27 01:11:27;;;;;;;6.13;4.20;;;;;;;19.17;58.00;94159.00;5090249;28;20032;-77
2023/07/27 01:14:04;;;;;;;4.10;3.47;;;;;;;19.18;57.67;94159.81;5091782;28;20032;-77
2023/07/27 01:16:58;;;;;;;4.72;3.55;;;;;;;19.08;57.28;94136.47;5091715;28;20458;-77
2023/07/27 01:19:49;;;;;;;4.38;3.47;;;;;;;19.04;57.54;94169.47;5081388;28;20090;-77
2023/07/27 01:22:20;;;;;;;4.25;3.10;;;;;;;18.93;57.34;94170.00;5090646;28;20034;-78
2023/07/27 01:25:09;;;;;;;4.20;2.88;;;;;;;18.71;57.88;94170.03;5090508;28;20020;-77
2023/07/27 01:27:43;;;;;;;4.25;3.42;;;;;;;18.85;57.20;94164.91;5090360;28;20108;-76
2023/07/27 01:30:29;;;;;;;3.70;2.83;;;;;;;18.96;56.92;94178.31;5090103;28;20032;-76
2023/07/27 01:32:58;;;;;;;3.63;2.70;;;;;;;18.82;56.97;94179.25;5090290;28;20448;-76
2023/07/27 01:35:24;;;;;;;3.70;2.63;;;;;;;18.80;57.29;94172.56;5073056;28;20024;-77
2023/07/27 01:37:50;;;;;;;3.28;2.50;;;;;;;18.86;56.47;94177.88;5073307;28;20097;-76
2023/07/27 01:40:15;;;;;;;5.43;2.00;;;;;;;18.65;56.77;94173.44;5090302;28;20031;-77
2023/07/27 01:42:41;;;;;;;3.53;2.13;;;;;;;18.66;56.66;94182.94;5089828;28;20040;-77
2023/07/27 01:45:07;;;;;;;3.05;2.10;;;;;;;18.71;56.41;94185.81;5089925;28;20032;-77
2023/07/27 01:47:32;;;;;;;3.47;2.33;;;;;;;18.53;56.07;94182.88;5073247;28;20040;-77
2023/07/27 01:49:57;;;;;;;3.47;2.60;;;;;;;18.45;56.22;94181.19;5089569;28;20065;-77
2023/07/27 01:52:23;;;;;;;3.13;2.30;;;;;;;18.17;57.06;94177.72;5056862;28;20441;-77
2023/07/27 01:54:48;;;;;;;3.00;2.40;;;;;;;18.18;57.24;94185.41;5090151;28;20027;-77
2023/07/27 01:57:14;;;;;;;4.72;2.05;;;;;;;18.39;56.93;94197.72;5089959;28;20054;-77
2023/07/27 01:59:39;;;;;;;3.85;2.55;;;;;;;18.12;57.07;94159.06;5072423;28;20458;-77
2023/07/27 02:02:05;;;;;;;3.60;2.40;;;;;;;18.26;57.15;94202.88;5089943;28;20089;-76
2023/07/27 02:04:30;;;;;;;2.88;2.40;;;;;;;18.20;57.51;94204.44;5090582;28;20035;-77
2023/07/27 02:06:56;;;;;;;2.95;2.55;;;;;;;18.06;57.70;94200.06;5090116;28;20036;-77
2023/07/27 02:09:21;;;;;;;3.00;2.65;;;;;;;18.16;57.69;94202.38;5091081;28;20051;-77
2023/07/27 02:11:48;;;;;;;2.97;2.67;;;;;;;18.09;57.74;94210.19;5089595;28;20021;-77
2023/07/27 02:14:16;;;;;;;4.00;2.88;;;;;;;18.14;57.67;94228.03;5089067;28;20032;-76
2023/07/27 02:16:47;;;;;;;3.67;2.80;;;;;;;18.08;57.82;94233.03;5090889;28;20024;-77
2023/07/27 02:19:13;;;;;;;3.35;3.05;;;;;;;18.13;57.61;94229.03;5073544;28;20064;-77
2023/07/27 02:21:38;;;;;;;3.17;2.88;;;;;;;18.09;57.83;94228.59;5072984;28;20036;-77
2023/07/27 02:24:04;;;;;;;6.38;3.40;;;;;;;18.15;57.56;94242.81;5068592;28;20098;-77
2023/07/27 02:26:29;;;;;;;3.80;3.30;;;;;;;18.04;57.87;94238.84;5069761;28;20100;-75
2023/07/27 02:28:56;;;;;;;4.60;4.20;;;;;;;18.05;57.90;94249.19;5053070;28;20106;-76
2023/07/27 02:31:22;;;;;;;4.63;3.95;;;;;;;17.90;58.17;94250.22;5070570;28;20103;-76
2023/07/27 02:33:48;;;;;;;4.53;4.13;;;;;;;17.87;58.19;94248.78;5052480;28;20037;-77
2023/07/27 02:36:13;;;;;;;5.00;4.18;;;;;;;17.99;58.16;94247.28;5068950;28;20081;-77
2023/07/27 02:38:38;;;;;;;4.60;4.20;;;;;;;18.01;58.15;94253.16;5090659;28;20414;-76
2023/07/27 02:41:04;;;;;;;5.55;3.95;;;;;;;18.04;58.32;94257.25;5090244;28;20035;-77
2023/07/27 02:43:29;;;;;;;5.07;4.57;;;;;;;18.15;57.91;94253.31;5090861;28;20055;-77
2023/07/27 02:45:59;;;;;;;4.65;4.25;;;;;;;18.26;57.46;94253.63;5089533;28;20020;-77
2023/07/27 02:48:24;;;;;;;5.27;4.70;;;;;;;18.29;57.65;94255.88;5073972;28;20398;-77
2023/07/27 02:50:50;;;;;;;4.75;4.35;;;;;;;18.37;57.32;94257.56;5093240;28;20036;-77
2023/07/27 02:53:16;;;;;;;5.93;4.50;;;;;;;18.24;57.75;94262.69;5094516;28;20028;-77
2023/07/27 02:55:41;;;;;;;5.15;4.57;;;;;;;18.35;57.33;94264.03;5093333;28;20073;-76
2023/07/27 02:58:07;;;;;;;5.22;4.72;;;;;;;18.39;57.14;94271.34;5093341;28;20028;-77
2023/07/27 03:00:32;;;;;;;5.65;5.15;;;;;;;18.27;56.44;94263.13;5071417;28;20020;-77
2023/07/27 03:02:57;;;;;;;5.45;4.95;;;;;;;18.27;56.30;94278.91;5093151;28;20085;-76
2023/07/27 03:05:23;;;;;;;5.55;5.05;;;;;;;18.16;56.40;94287.28;5093073;28;20024;-77
2023/07/27 03:07:48;;;;;;;5.65;5.15;;;;;;;18.03;56.26;94285.34;5092744;28;20494;-77
2023/07/27 03:10:14;;;;;;;5.70;5.20;;;;;;;18.15;55.96;94296.19;5093842;28;20016;-77
2023/07/27 03:12:39;;;;;;;5.45;4.95;;;;;;;17.97;56.02;94301.00;5094250;28;20028;-76
2023/07/27 03:15:05;;;;;;;5.90;5.40;;;;;;;17.88;55.92;94283.75;5093095;28;20044;-77
2023/07/27 03:17:30;;;;;;;6.63;5.53;;;;;;;17.90;55.58;94293.06;5094187;28;20036;-77
2023/07/27 03:19:56;;;;;;;5.50;5.00;;;;;;;17.95;55.43;94305.66;5092528;28;20070;-77
2023/07/27 03:22:21;;;;;;;4.70;4.30;;;;;;;17.84;55.31;94299.06;5092841;28;20036;-77
2023/07/27 03:24:47;;;;;;;5.57;4.65;;;;;;;17.78;54.85;94287.47;5092927;28;20039;-77
2023/07/27 03:27:12;;;;;;;6.20;4.90;;;;;;;17.97;54.86;94320.25;5093361;28;20032;-77
2023/07/27 03:29:37;;;;;;;5.88;5.28;;;;;;;17.73;54.52;94310.00;5093154;28;20047;-77
2023/07/27 03:32:03;;;;;;;5.55;5.05;;;;;;;17.78;54.69;94319.00;5093917;28;20504;-77
2023/07/27 03:34:29;;;;;;;5.35;4.85;;;;;;;17.80;54.74;94308.28;5093381;28;20052;-77
2023/07/27 03:36:54;;;;;;;5.93;5.32;;;;;;;17.65;54.65;94295.97;5093827;28;20023;-77
2023/07/27 03:39:19;;;;;;;5.47;5.03;;;;;;;17.86;54.43;94308.41;5092762;28;20024;-76
2023/07/27 03:41:45;;;;;;;5.60;4.93;;;;;;;17.79;54.40;94304.84;5092447;28;20020;-76
2023/07/27 03:44:11;;;;;;;6.43;4.70;;;;;;;17.74;53.77;94309.00;5075230;28;20078;-77
2023/07/27 03:46:37;;;;;;;5.47;4.80;;;;;;;17.75;52.54;94305.41;5093467;28;20043;-77
2023/07/27 03:49:02;;;;;;;5.68;4.45;;;;;;;17.67;52.39;94311.56;5092733;28;20024;-75
2023/07/27 03:51:27;;;;;;;5.35;4.40;;;;;;;17.81;51.54;94317.81;5092288;28;20345;-77
2023/07/27 03:53:53;;;;;;;3.88;3.45;;;;;;;17.73;51.42;94318.69;5075525;28;20077;-76
2023/07/27 03:56:18;;;;;;;4.85;3.58;;;;;;;17.86;50.24;94318.91;5092374;28;20079;-79
2023/07/27 03:58:44;;;;;;;4.35;3.95;;;;;;;17.87;50.34;94327.59;5074757;28;20043;-77
2023/07/27 04:01:09;;;;;;;4.00;3.70;;;;;;;17.90;50.04;94329.03;5074815;28;20043;-77
2023/07/27 04:03:34;;;;;;;4.35;3.88;;;;;;;17.89;50.48;94343.19;5075018;28;20032;-77
2023/07/27 04:06:00;;;;;;;3.63;3.30;;;;;;;17.82;50.43;94343.91;5075179;28;20028;-77
2023/07/27 04:08:25;;;;;;;4.32;3.13;;;;;;;17.73;49.44;94347.59;5093135;28;20051;-77
2023/07/27 04:10:51;;;;;;;3.80;3.40;;;;;;;17.80;49.86;94372.19;5092972;28;20031;-77
2023/07/27 04:13:16;;;;;;;2.97;2.60;;;;;;;17.72;49.37;94364.38;5091382;28;20024;-77
2023/07/27 04:15:42;;;;;;;4.25;2.75;;;;;;;17.55;49.22;94353.22;5092978;28;20043;-77
2023/07/27 04:18:08;;;;;;;4.05;2.50;;;;;;;17.69;49.67;94359.47;5091644;28;20482;-77
2023/07/27 04:20:33;;;;;;;3.05;2.63;;;;;;;17.73;49.28;94363.34;5091262;28;20027;-77
2023/07/27 04:22:58;;;;;;;2.72;2.35;;;;;;;17.69;49.02;94364.72;5093211;28;20032;-77
2023/07/27 04:25:24;;;;;;;3.95;2.58;;;;;;;17.74;48.88;94354.47;5091692;28;20628;-78
2023/07/27 04:27:52;;;;;;;3.28;2.50;;;;;;;17.72;48.53;94374.03;5092016;28;20036;-78
2023/07/27 04:30:18;;;;;;;2.67;2.20;;;;;;;17.66;48.35;94365.06;5090405;28;20020;-77
2023/07/27 04:32:44;;;;;;;3.50;2.40;;;;;;;17.76;48.42;94368.25;5091225;28;20054;-78
2023/07/27 04:35:09;;;;;;;4.45;2.25;;;;;;;17.61;48.72;94381.38;5073632;28;20490;-77
2023/07/27 04:37:34;;;;;;;3.03;2.50;;;;;;;17.52;49.43;94387.69;5092587;28;20437;-77
2023/07/27 04:40:00;;;;;;;3.15;2.40;;;;;;;17.55;49.07;94397.88;5092314;28;20024;-78
2023/07/27 04:42:25;;;;;;;3.92;2.22;;;;;;;17.65;48.89;94414.16;5090390;28;20387;-78
2023/07/27 04:44:51;;;;;;;5.60;2.55;;;;;;;17.58;48.91;94405.38;5073274;28;20039;-78
2023/07/27 04:47:16;;;;;;;2.35;2.15;;;;;;;17.74;48.83;94420.13;5090297;28;20505;-78
2023/07/27 04:49:42;;;;;;;6.50;2.38;;;;;;;17.72;48.74;94423.94;5092313;28;20403;-78
2023/07/27 04:52:07;;;;;;;3.15;2.38;;;;;;;17.70;48.46;94418.06;5085097;28;20060;-77
2023/07/27 04:54:33;;;;;;;2.60;2.20;;;;;;;17.56;48.59;94427.56;5072454;28;20085;-77
2023/07/27 04:56:58;;;;;;;3.33;2.28;;;;;;;17.45;48.43;94414.88;5064367;28;20524;-77
2023/07/27 04:59:23;;;;;;;2.45;2.10;;;;;;;17.39;48.65;94424.28;5090847;28;20077;-77
2023/07/27 05:01:49;;;;;;;3.65;2.50;;;;;;;17.36;49.75;94417.56;5069566;28;20492;-77
2023/07/27 05:04:14;;;;;;;3.22;2.10;;;;;;;17.53;49.29;94433.16;5089162;28;20024;-77
2023/07/27 05:06:39;;;;;;;3.08;2.30;;;;;;;17.61;48.60;94425.22;5091961;28;20204;-77
2023/07/27 05:09:05;;;;;;;2.67;2.30;;;;;;;17.52;49.04;94431.53;5090650;28;20055;-77
2023/07/27 05:11:31;;;;;;;2.65;2.28;;;;;;;17.50;48.91;94444.03;5085027;28;20028;-77
2023/07/27 05:13:57;;;;;;;4.50;2.30;;;;;;;17.38;49.10;94446.25;5075602;28;20086;-77
2023/07/27 05:16:22;;;;;;;3.25;2.10;;;;;;;17.37;49.55;94455.13;5071719;28;20082;-77
2023/07/27 05:18:49;;;;;;;3.25;2.53;;;;;;;17.35;49.55;94451.84;5072651;28;20070;-77
2023/07/27 05:21:14;;;;;;;2.80;2.08;;;;;;;17.28;49.80;94430.75;5088884;28;20498;-77
2023/07/27 05:23:39;;;;;;;2.40;2.10;;;;;;;17.29;50.17;94440.25;5091588;28;20039;-77
2023/07/27 05:26:05;;;;;;;3.95;2.50;;;;;;;17.10;49.65;94411.88;5090345;28;20032;-77
2023/07/27 05:28:30;;;;;;;3.05;2.40;;;;;;;17.30;49.41;94439.28;5092055;28;20042;-77
2023/07/27 05:30:56;;;;;;;2.60;2.40;;;;;;;17.27;48.56;94438.81;5072818;28;20028;-77
2023/07/27 05:33:21;;;;;;;2.85;2.60;;;;;;;17.07;49.04;94457.66;5090182;28;20032;-77
2023/07/27 05:35:48;;;;;;;2.63;2.28;;;;;;;17.14;48.75;94455.97;5089420;28;20024;-76
2023/07/27 05:38:14;;;;;;;3.47;2.35;;;;;;;17.07;49.19;94443.72;5089033;28;20103;-77
2023/07/27 05:40:40;;;;;;;3.28;2.22;;;;;;;17.19;49.16;94450.22;5073254;28;20497;-77
2023/07/27 05:43:05;;;;;;;2.90;2.60;;;;;;;17.21;48.58;94461.31;5073235;28;20293;-77
2023/07/27 05:45:31;;;;;;;3.72;2.90;;;;;;;17.26;48.72;94476.56;5070598;28;20033;-77
2023/07/27 05:47:56;;;;;;;5.03;2.80;;;;;;;17.02;49.01;94472.28;5090907;28;20039;-77
2023/07/27 05:50:22;;;;;;;2.85;2.63;;;;;;;16.99;49.16;94483.94;5085374;28;20035;-77
2023/07/27 05:52:47;;;;;;;2.72;2.53;;;;;;;17.06;48.88;94476.22;5087155;28;20437;-77
2023/07/27 05:55:13;;;;;;;2.70;2.50;;;;;;;17.15;48.76;94485.66;5081219;28;20481;-77
2023/07/27 05:57:40;;;;;;;6.50;2.90;;;;;;;17.10;49.08;94480.91;5089959;28;20040;-77
2023/07/27 06:00:06;;;;;;;3.25;2.30;;;;;;;17.14;49.03;94486.66;5052699;28;20039;-77
2023/07/27 06:02:32;;;;;;;2.92;2.60;;;;;;;17.16;48.90;94482.03;5093422;28;20032;-77
2023/07/27 06:04:57;;;;;;;4.72;2.63;;;;;;;17.31;48.85;94490.78;5089479;28;20027;-77
2023/07/27 06:07:22;;;;;;;6.10;2.70;;;;;;;17.14;48.75;94478.78;5090372;28;20466;-77
2023/07/27 06:09:48;;;;;;;3.13;2.67;;;;;;;17.28;48.56;94499.00;5086920;28;20036;-78
2023/07/27 06:12:13;;;;;;;7.05;2.67;;;;;;;17.11;48.60;94487.00;5090108;28;20036;-78
2023/07/27 06:14:39;;;;;;;3.53;2.50;;;;;;;17.16;48.54;94501.25;5065671;28;20027;-78
2023/07/27 06:17:05;;;;;;;5.15;2.75;;;;;;;17.11;47.96;94498.31;5089675;28;20040;-77
2023/07/27 06:19:30;;;;;;;5.60;2.40;;;;;;;17.25;47.93;94498.56;5088389;28;20032;-78
2023/07/27 06:21:56;;;;;;;3.40;2.67;;;;;;;17.06;48.11;94484.91;5088871;28;20032;-78
2023/07/27 06:24:21;;;;;;;5.63;2.30;;;;;;;17.33;47.33;94501.94;5092687;28;20032;-78
2023/07/27 06:26:46;;;;;;;2.85;2.33;;;;;;;17.32;47.38;94509.97;5077467;28;20435;-78
2023/07/27 06:29:12;;;;;;;5.32;2.38;;;;;;;17.25;47.50;94512.50;5104900;28;20024;-78
2023/07/27 06:31:37;;;;;;;5.03;2.38;;;;;;;17.27;47.47;94507.03;5085696;28;20020;-78
2023/07/27 06:34:03;;;;;;;2.95;2.08;;;;;;;17.33;46.92;94506.38;5089444;28;20409;-78
2023/07/27 06:36:28;;;;;;;4.97;2.10;;;;;;;17.44;46.68;94492.81;5093023;28;20028;-78
2023/07/27 06:38:54;;;;;;;3.42;2.10;;;;;;;17.60;46.22;94476.91;5093489;28;20410;-78
2023/07/27 06:41:24;;;;;;;3.10;2.13;;;;;;;17.76;45.92;94486.44;5090897;28;20028;-78
2023/07/27 06:43:50;;;;;;;2.90;2.08;;;;;;;18.15;46.06;94490.69;5075562;28;20089;-79
2023/07/27 06:46:15;;;;;;;5.35;2.10;;;;;;;18.54;44.60;94487.75;5091731;28;20040;-78
2023/07/27 06:48:41;;;;;;;2.35;1.88;;;;;;;18.74;43.10;94481.94;5061779;28;20044;-77
2023/07/27 06:51:06;;;;;;;2.67;1.90;;;;;;;18.84;42.69;94474.56;5078105;28;20429;-76
2023/07/27 06:53:32;;;;;;;2.42;1.70;;;;;;;19.03;42.24;94481.06;5093409;28;20651;-76
2023/07/27 06:55:57;;;;;;;2.63;1.88;;;;;;;19.05;42.78;94476.41;5076053;28;20509;-76
2023/07/27 06:58:23;;;;;;;3.25;1.98;;;;;;;19.20;42.51;94474.53;5092809;28;20152;-76
2023/07/27 07:00:48;;;;;;;4.10;1.85;;;;;;;19.29;41.60;94469.16;5093017;28;20028;-76
2023/07/27 07:03:13;;;;;;;5.07;1.88;;;;;;;19.35;41.53;94456.03;5064208;28;20040;-76
2023/07/27 07:05:39;;;;;;;2.63;1.60;;;;;;;19.70;40.35;94469.31;5054219;28;20490;-76
2023/07/27 07:08:04;;;;;;;2.97;1.60;;;;;;;19.80;39.31;94463.69;5055084;28;20060;-76
2023/07/27 07:10:30;;;;;;;2.20;1.50;;;;;;;19.99;38.71;94441.94;5073019;28;20039;-76
2023/07/27 07:12:56;;;;;;;2.83;1.52;;;;;;;20.22;38.99;94436.38;5072566;28;20028;-76
2023/07/27 07:15:21;;;;;;;2.47;1.48;;;;;;;20.40;38.35;94449.06;5073168;28;20099;-77
2023/07/27 07:17:47;;;;;;;4.32;1.60;;;;;;;20.64;37.97;94454.84;5073040;28;20499;-77
2023/07/27 07:20:14;;;;;;;3.80;1.30;;;;;;;20.49;37.67;94447.88;5072314;28;20028;-77
2023/07/27 07:22:39;;;;;;;4.50;1.50;;;;;;;20.55;37.93;94453.41;5056114;28;20051;-77
2023/07/27 07:25:05;;;;;;;2.10;1.50;;;;;;;20.72;37.41;94457.31;5073861;28;20016;-77
2023/07/27 07:27:30;;;;;;;2.63;1.50;;;;;;;20.85;37.43;94446.81;5072572;28;20563;-77
2023/07/27 07:29:56;;;;;;;1.92;1.33;;;;;;;20.87;37.22;94428.13;5074204;28;20032;-77
2023/07/27 07:32:21;;;;;;;5.10;1.52;;;;;;;21.20;37.26;94449.28;5072426;28;20078;-77
2023/07/27 07:34:46;;;;;;;2.05;1.42;;;;;;;21.24;36.33;94439.16;5071303;28;20033;-77
2023/07/27 07:37:12;;;;;;;3.85;1.50;;;;;;;21.36;36.53;94437.53;5073884;28;20437;-76
2023/07/27 07:39:37;;;;;;;2.45;1.60;;;;;;;21.44;36.29;94460.34;5072490;28;20043;-77
2023/07/27 07:42:03;;;;;;;3.75;1.60;;;;;;;21.65;36.46;94449.56;5072308;28;20158;-77
2023/07/27 07:44:29;;;;;;;2.17;1.52;;;;;;;21.54;36.31;94429.06;5073358;28;20028;-77
2023/07/27 07:46:55;;;;;;;2.45;1.58;;;;;;;21.74;35.64;94450.97;5073482;28;20103;-77
2023/07/27 07:49:20;;;;;;;2.70;1.58;;;;;;;21.78;35.33;94451.38;5073373;28;20047;-77
2023/07/27 07:51:45;;;;;;;2.72;1.40;;;;;;;21.66;35.34;94467.06;5072074;28;20025;-77
2023/07/27 07:54:11;;;;;;;3.08;1.60;;;;;;;21.76;35.67;94451.59;5055420;28;20029;-77
2023/07/27 07:56:36;;;;;;;2.67;1.50;;;;;;;21.60;35.71;94436.97;5073400;28;20024;-77
2023/07/27 07:59:02;;;;;;;4.93;1.63;;;;;;;21.61;36.19;94464.19;5072302;28;20051;-76
2023/07/27 08:01:27;;;;;;;4.07;1.60;;;;;;;21.60;36.27;94463.38;5055348;28;20036;-77
2023/07/27 08:03:53;;;;;;;3.88;1.63;;;;;;;21.69;36.04;94469.28;5055440;28;20036;-77
2023/07/27 08:06:18;;;;;;;3.75;1.63;;;;;;;21.82;35.96;94477.22;5071864;28;20032;-77
2023/07/27 08:08:44;;;;;;;3.13;1.50;;;;;;;21.83;35.34;94460.31;5055105;28;20063;-76
2023/07/27 08:11:10;;;;;;;3.45;1.40;;;;;;;21.96;35.55;94475.38;5054879;28;20571;-77
2023/07/27 08:13:35;;;;;;;2.25;1.40;;;;;;;22.02;34.72;94476.38;5072007;28;20040;-76
2023/07/27 08:16:03;;;;;;;3.97;1.30;;;;;;;22.21;35.08;94464.19;5073325;28;20032;-76
2023/07/27 08:18:29;;;;;;;2.13;1.52;;;;;;;22.27;35.21;94482.66;5071742;28;20032;-77
2023/07/27 08:21:02;;;;;;;1.77;1.30;;;;;;;22.57;34.37;94492.78;5071623;28;20024;-76
2023/07/27 08:23:27;;;;;;;3.78;1.50;;;;;;;22.40;34.41;94483.63;5054952;28;20475;-76
2023/07/27 08:25:53;;;;;;;3.88;1.40;;;;;;;22.43;33.89;94483.25;5071587;28;20031;-76
2023/07/27 08:28:20;;;;;;;2.50;1.42;;;;;;;22.45;34.48;94489.13;5071538;28;20032;-77
2023/07/27 08:30:45;;;;;;;3.08;1.50;;;;;;;22.41;34.76;94501.16;5071494;28;20020;-77
2023/07/27 08:33:12;;;;;;;2.50;1.20;;;;;;;22.49;34.07;94471.81;5054730;28;20041;-76
2023/07/27 08:35:38;;;;;;;6.32;1.60;;;;;;;22.49;33.29;94479.75;5071175;28;20115;-76
2023/07/27 08:38:03;;;;;;;5.43;1.50;;;;;;;22.03;34.75;94496.50;5071336;28;20036;-77
2023/07/27 08:40:29;;;;;;;3.05;1.70;;;;;;;22.18;34.32;94505.06;5054467;28;20028;-77
2023/07/27 08:42:55;;;;;;;5.85;1.83;;;;;;;22.17;34.01;94502.59;5054784;28;20056;-76
2023/07/27 08:45:21;;;;;;;3.25;1.63;;;;;;;22.45;33.91;94505.00;5071093;28;20414;-77
2023/07/27 08:47:49;;;;;;;1.98;1.20;;;;;;;22.32;33.83;94499.78;5054351;28;20036;-77
2023/07/27 08:50:15;;;;;;;3.55;1.40;;;;;;;22.58;33.79;94483.00;5038000;28;20028;-76
2023/07/27 08:52:41;;;;;;;3.00;1.65;;;;;;;22.55;33.66;94484.22;5054504;28;20037;-77
2023/07/27 08:55:07;;;;;;;3.05;1.55;;;;;;;22.91;33.88;94493.44;5070986;28;20264;-77
2023/07/27 08:57:32;;;;;;;3.90;1.40;;;;;;;22.71;32.65;94512.88;5054429;28;20505;-77
2023/07/27 08:59:58;;;;;;;2.63;1.38;;;;;;;22.56;33.28;94501.72;5072152;28;20032;-77
2023/07/27 09:02:23;;;;;;;3.20;1.70;;;;;;;22.55;33.27;94504.59;5054208;28;20036;-77
2023/07/27 09:04:48;;;;;;;2.42;1.33;;;;;;;22.70;33.76;94519.16;5072107;28;20032;-77
2023/07/27 09:07:14;;;;;;;5.82;1.70;;;;;;;22.68;33.20;94513.31;5071878;28;20044;-77
2023/07/27 09:09:40;;;;;;;2.65;1.48;;;;;;;22.67;33.43;94500.25;5070325;28;20498;-76
2023/07/27 09:12:06;;;;;;;3.67;1.25;;;;;;;22.52;33.43;94503.16;5070686;28;20325;-76
2023/07/27 09:14:36;;;;;;;3.13;1.25;;;;;;;22.46;33.58;94496.88;5054048;28;20020;-77
2023/07/27 09:17:01;;;;;;;2.83;1.25;;;;;;;22.55;34.31;94496.66;5070589;28;20043;-76
2023/07/27 09:19:26;;;;;;;2.97;1.40;;;;;;;22.71;33.95;94514.72;5053656;28;20028;-77
2023/07/27 09:21:52;;;;;;;2.67;1.30;;;;;;;22.53;33.21;94520.66;5053682;28;20056;-76
2023/07/27 09:24:18;;;;;;;4.50;1.20;;;;;;;22.58;33.14;94497.03;5053817;28;20549;-77
2023/07/27 09:26:44;;;;;;;3.70;1.42;;;;;;;22.59;33.98;94506.59;5071889;28;20037;-77
2023/07/27 09:29:09;;;;;;;4.57;1.40;;;;;;;22.78;33.70;94501.44;5070076;28;20509;-77
2023/07/27 09:31:52;;;;;;;3.30;1.48;;;;;;;22.87;33.51;94510.75;5070551;28;20032;-77
2023/07/27 09:34:19;;;;;;;4.18;1.17;;;;;;;22.97;33.36;94504.03;5070339;28;20084;-77
2023/07/27 09:36:44;;;;;;;3.47;1.33;;;;;;;23.03;34.31;94509.50;5053575;28;20474;-76
2023/07/27 09:39:10;;;;;;;3.97;1.33;;;;;;;22.96;33.47;94501.63;5053605;28;20115;-77
2023/07/27 09:41:36;;;;;;;2.90;1.20;;;;;;;22.97;32.99;94529.72;5071297;28;20029;-77
2023/07/27 09:44:02;;;;;;;2.10;1.25;;;;;;;22.83;33.01;94520.97;5053541;28;20414;-77
2023/07/27 09:46:28;;;;;;;3.63;1.23;;;;;;;22.80;33.02;94504.69;5071341;28;20024;-77
2023/07/27 09:48:53;;;;;;;9.40;1.60;;;;;;;22.62;34.12;94506.19;5053618;28;20032;-76
2023/07/27 09:51:19;;;;;;;3.60;1.40;;;;;;;22.85;33.43;94518.94;5053303;28;20028;-77
2023/07/27 09:53:44;;;;;;;2.97;1.42;;;;;;;22.99;32.16;94508.31;5053485;28;20552;-77
2023/07/27 09:56:13;;;;;;;3.50;1.25;;;;;;;22.83;33.10;94512.22;5071166;28;20028;-77
2023/07/27 09:58:39;;;;;;;2.95;1.30;;;;;;;22.84;32.70;94516.47;5069795;28;20107;-77
2023/07/27 10:01:05;;;;;;;3.00;1.40;;;;;;;22.66;32.85;94525.91;5053347;28;20332;-77
2023/07/27 10:03:30;;;;;;;2.65;1.40;;;;;;;22.72;32.97;94529.56;5069968;28;20426;-77
2023/07/27 10:05:56;;;;;;;5.47;1.50;;;;;;;22.58;33.81;94510.25;5070947;28;20407;-77
2023/07/27 10:08:21;;;;;;;2.08;1.48;;;;;;;22.82;33.74;94531.78;5052847;28;20434;-77
2023/07/27 10:10:52;;;;;;;1.98;1.50;;;;;;;22.83;32.58;94518.31;5069724;28;20035;-77
2023/07/27 10:13:24;;;;;;;4.93;1.80;;;;;;;23.03;33.08;94510.31;5069852;28;20487;-77
2023/07/27 10:15:55;;;;;;;2.25;1.60;;;;;;;22.84;33.00;94511.19;5071166;28;20028;-77
2023/07/27 10:18:27;;;;;;;3.80;1.50;;;;;;;22.97;32.98;94516.47;5053426;28;20036;-77
2023/07/27 10:21:15;;;;;;;6.28;1.48;;;;;;;22.83;32.25;94512.22;5052926;28;20028;-77
2023/07/27 10:23:51;;;;;;;4.20;1.60;;;;;;;22.74;32.35;94512.47;5070111;28;20110;-77
2023/07/27 10:26:16;;;;;;;4.07;1.60;;;;;;;22.57;31.44;94513.94;5069759;28;20033;-77
2023/07/27 10:28:44;;;;;;;3.70;1.40;;;;;;;22.71;32.50;94520.00;5036464;28;20099;-77
2023/07/27 10:31:15;;;;;;;3.17;1.50;;;;;;;;;;5052902;28;20029;-77
2023/07/27 10:34:07;;;;;;;4.15;1.67;;;;;;;22.47;32.20;94513.56;5071210;28;20689;-77
2023/07/27 10:37:00;;;;;;;4.70;1.50;;;;;;;22.67;32.09;94511.66;5068811;28;20581;-77
2023/07/27 10:39:56;;;;;;;2.10;1.52;;;;;;;22.68;32.08;94509.84;5069541;28;20044;-77
2023/07/27 10:42:21;;;;;;;3.20;1.40;;;;;;;22.68;31.57;94494.78;5061200;28;20317;-77
2023/07/27 10:44:57;;;;;;;2.33;1.42;;;;;;;22.74;31.93;94498.41;5070895;28;20529;-77
2023/07/27 10:47:23;;;;;;;4.45;1.65;;;;;;;22.69;32.38;94506.16;5052793;28;20045;-77
2023/07/27 10:49:53;;;;;;;2.58;1.58;;;;;;;22.89;31.75;94490.19;5069399;28;20410;-76
2023/07/27 10:52:20;;;;;;;2.55;1.50;;;;;;;22.94;31.98;94493.84;5052505;28;20056;-77
2023/07/27 10:54:46;;;;;;;3.10;1.70;;;;;;;22.95;31.31;94505.22;5052896;28;20039;-76
2023/07/27 10:57:12;;;;;;;1.98;1.58;;;;;;;22.94;31.44;94482.44;5052695;28;20521;-77
2023/07/27 10:59:42;;;;;;;2.17;1.50;;;;;;;23.06;31.70;94477.31;5069597;28;20036;-77
2023/07/27 11:02:24;;;;;;;2.03;1.52;;;;;;;23.17;32.40;94497.81;5070617;28;20157;-77
2023/07/27 11:04:53;;;;;;;4.28;2.00;;;;;;;23.42;31.70;94506.63;5069435;28;20414;-77
2023/07/27 11:07:32;;;;;;;4.75;1.88;;;;;;;23.45;31.06;94497.44;5068791;28;20043;-77
2023/07/27 11:09:58;;;;;;;2.42;1.50;;;;;;;23.34;30.96;94492.84;5054526;28;20074;-77
2023/07/27 11:12:24;;;;;;;3.08;1.73;;;;;;;23.48;30.88;94488.25;5056188;28;20041;-78
2023/07/27 11:14:51;;;;;;;3.90;1.75;;;;;;;23.57;30.71;94484.34;5039515;28;20513;-77
2023/07/27 11:17:16;;;;;;;3.63;1.70;;;;;;;23.66;30.59;94484.88;5072993;28;20035;-77
2023/07/27 11:19:42;;;;;;;2.53;1.60;;;;;;;23.62;30.44;94482.66;5056277;28;20021;-77
2023/07/27 11:22:07;;;;;;;4.88;2.17;;;;;;;23.38;30.79;94467.53;5056333;28;20044;-76
2023/07/27 11:24:33;;;;;;;3.35;1.88;;;;;;;23.12;31.05;94472.00;5055868;28;20031;-77
2023/07/27 11:26:59;;;;;;;3.40;1.77;;;;;;;23.27;31.00;94470.88;5072725;28;20032;-77
2023/07/27 11:29:24;;;;;;;2.15;1.63;;;;;;;23.42;30.82;94469.53;5056160;28;20036;-76
2023/07/27 11:31:53;;;;;;;3.55;1.67;;;;;;;23.53;30.28;94478.63;5072418;28;20016;-76